createdAt,value
2019-02-18T00:00:43.188Z,7.33
2019-02-18T00:03:13.472Z,7.39
2019-02-18T00:05:44.741Z,7.19
2019-02-18T00:08:15.060Z,7.05
2019-02-18T00:10:45.331Z,7.09
2019-02-18T00:13:15.658Z,7.31
2019-02-18T00:15:47.477Z,7.26
2019-02-18T00:18:17.807Z,7.31
2019-02-18T00:20:48.104Z,7.28
2019-02-18T00:23:18.412Z,7.27
2019-02-18T00:25:48.710Z,7.03
2019-02-18T00:28:19.980Z,6.93
2019-02-18T00:30:50.286Z,6.95
2019-02-18T00:33:20.627Z,7.01
2019-02-18T00:35:51.032Z,7.11
2019-02-18T00:38:21.366Z,7.11
2019-02-18T00:40:51.652Z,6.86
2019-02-18T00:43:21.962Z,6.48
2019-02-18T00:45:52.329Z,6.39
2019-02-18T00:48:22.609Z,6.42
2019-02-18T00:50:52.912Z,6.43
2019-02-18T00:53:23.204Z,6.44
2019-02-18T00:55:53.651Z,6.45
2019-02-18T00:58:23.948Z,6.43
2019-02-18T01:00:54.256Z,6.50
2019-02-18T01:03:24.570Z,6.46
2019-02-18T01:05:57.879Z,6.57
2019-02-18T01:08:28.181Z,6.60
2019-02-18T01:10:58.524Z,6.76
2019-02-18T01:13:28.774Z,6.70
2019-02-18T01:15:59.061Z,6.97
2019-02-18T01:18:29.383Z,7.07
2019-02-18T01:21:01.235Z,6.99
2019-02-18T01:23:33.186Z,7.04
2019-02-18T01:26:04.990Z,7.26
2019-02-18T01:28:36.824Z,6.96
2019-02-18T01:31:08.620Z,7.03
2019-02-18T01:33:40.543Z,7.21
2019-02-18T01:36:12.395Z,7.31
2019-02-18T01:38:43.265Z,7.30
2019-02-18T01:41:13.565Z,7.40
2019-02-18T01:43:43.853Z,7.38
2019-02-18T01:46:14.191Z,7.38
2019-02-18T01:48:44.496Z,7.23
2019-02-18T01:51:14.919Z,6.81
2019-02-18T01:53:45.218Z,6.90
2019-02-18T01:56:15.518Z,6.73
2019-02-18T01:58:45.894Z,6.80
2019-02-18T02:01:16.311Z,6.63
2019-02-18T02:03:46.584Z,6.46
2019-02-18T02:06:16.887Z,6.39
2019-02-18T02:08:47.163Z,6.29
2019-02-18T02:11:17.456Z,6.38
2019-02-18T02:13:47.783Z,6.55
2019-02-18T02:16:18.077Z,6.56
2019-02-18T02:18:48.360Z,6.70
2019-02-18T02:21:18.647Z,6.74
2019-02-18T02:23:48.931Z,6.67
2019-02-18T02:26:19.227Z,6.44
2019-02-18T02:28:49.532Z,6.39
2019-02-18T02:31:19.863Z,6.55
2019-02-18T02:33:50.145Z,6.66
2019-02-18T02:36:20.442Z,6.74
2019-02-18T02:38:50.740Z,6.84
2019-02-18T02:41:21.022Z,6.86
2019-02-18T02:43:51.325Z,6.82
2019-02-18T02:46:21.603Z,6.84
2019-02-18T02:48:52.937Z,6.87
2019-02-18T02:51:23.235Z,6.82
2019-02-18T02:53:53.536Z,6.92
2019-02-18T02:56:23.905Z,6.89
2019-02-18T02:58:54.191Z,6.29
2019-02-18T03:01:24.497Z,6.31
2019-02-18T03:03:54.761Z,6.19
2019-02-18T03:06:25.063Z,5.98
2019-02-18T03:08:55.354Z,5.88
2019-02-18T03:11:25.752Z,5.75
2019-02-18T03:13:56.047Z,5.58
2019-02-18T03:16:26.344Z,5.81
2019-02-18T03:18:56.825Z,5.89
2019-02-18T03:21:27.122Z,5.88
2019-02-18T03:23:57.399Z,6.16
2019-02-18T03:26:27.695Z,6.26
2019-02-18T03:31:51.180Z,6.57
2019-02-18T03:34:24.704Z,6.44
2019-02-18T03:36:55.055Z,6.41
2019-02-18T03:39:25.332Z,6.53
2019-02-18T03:41:55.626Z,6.36
2019-02-18T03:44:25.901Z,6.27
2019-02-18T03:46:56.196Z,6.02
2019-02-18T03:49:26.495Z,5.67
2019-02-18T03:51:56.769Z,5.69
2019-02-18T03:54:27.063Z,5.74
2019-02-18T03:56:57.364Z,5.95
2019-02-18T03:59:28.636Z,6.29
2019-02-18T04:01:58.910Z,6.32
2019-02-18T04:04:29.204Z,6.39
2019-02-18T04:06:59.480Z,6.52
2019-02-18T04:09:29.828Z,6.51
2019-02-18T04:12:00.150Z,6.46
2019-02-18T04:14:30.785Z,6.48
2019-02-18T04:17:01.149Z,6.45
2019-02-18T04:19:31.408Z,6.45
2019-02-18T04:22:01.773Z,6.43
2019-02-18T04:24:32.105Z,6.42
2019-02-18T04:27:02.464Z,6.46
2019-02-18T04:29:32.760Z,6.42
2019-02-18T04:32:03.033Z,6.28
2019-02-18T04:34:33.329Z,5.98
2019-02-18T04:37:03.716Z,5.92
2019-02-18T04:39:33.999Z,5.95
2019-02-18T04:42:04.286Z,5.89
2019-02-18T04:44:34.585Z,5.68
2019-02-18T04:47:04.877Z,5.69
2019-02-18T04:49:35.297Z,5.72
2019-02-18T04:52:05.640Z,5.78
2019-02-18T04:54:35.950Z,5.69
2019-02-18T04:57:06.654Z,5.75
2019-02-18T04:59:36.958Z,5.95
2019-02-18T05:02:07.257Z,6.10
2019-02-18T05:04:37.550Z,6.16
2019-02-18T05:07:07.876Z,6.16
2019-02-18T05:09:39.913Z,6.33
2019-02-18T05:12:10.139Z,6.33
2019-02-18T05:14:40.445Z,6.31
2019-02-18T05:17:14.761Z,6.40
2019-02-18T05:19:45.043Z,6.31
2019-02-18T05:22:15.335Z,6.26
2019-02-18T05:24:45.635Z,6.24
2019-02-18T05:27:15.954Z,6.27
2019-02-18T05:29:46.251Z,5.82
2019-02-18T05:32:16.530Z,5.82
2019-02-18T05:34:46.816Z,5.68
2019-02-18T05:37:17.123Z,5.85
2019-02-18T05:39:47.437Z,6.09
2019-02-18T05:42:17.842Z,6.07
2019-02-18T05:44:48.398Z,6.14
2019-02-18T05:47:18.722Z,6.23
2019-02-18T05:49:48.995Z,5.93
2019-02-18T05:52:19.453Z,5.84
2019-02-18T05:54:49.718Z,5.80
2019-02-18T05:57:22.901Z,5.95
2019-02-18T05:59:53.657Z,6.13
2019-02-18T06:02:24.048Z,6.30
2019-02-18T06:04:54.329Z,6.28
2019-02-18T06:07:24.694Z,6.39
2019-02-18T06:09:56.172Z,6.37
2019-02-18T06:12:26.508Z,6.41
2019-02-18T06:14:57.039Z,6.42
2019-02-18T06:17:27.329Z,6.36
2019-02-18T06:19:57.813Z,6.35
2019-02-18T06:22:28.228Z,6.43
2019-02-18T06:24:58.599Z,6.64
2019-02-18T06:27:28.876Z,6.90
2019-02-18T06:29:59.200Z,7.46
2019-02-18T06:32:29.472Z,8.15
2019-02-18T06:34:59.822Z,8.67
2019-02-18T06:37:30.761Z,8.41
2019-02-18T06:40:01.437Z,8.45
2019-02-18T06:42:31.824Z,8.60
2019-02-18T06:45:03.970Z,8.45
2019-02-18T06:47:34.991Z,8.66
2019-02-18T06:50:07.998Z,8.79
2019-02-18T06:52:39.115Z,7.82
2019-02-18T06:55:09.506Z,7.22
2019-02-18T06:57:41.661Z,7.29
2019-02-18T07:00:13.643Z,7.16
2019-02-18T07:02:45.583Z,7.26
2019-02-18T07:05:17.751Z,7.19
2019-02-18T07:07:55.670Z,7.33
2019-02-18T07:10:27.605Z,7.59
2019-02-18T07:12:57.963Z,8.00
2019-02-18T07:15:28.262Z,8.02
2019-02-18T07:18:00.189Z,7.53
2019-02-18T07:20:30.510Z,7.32
2019-02-18T07:23:00.820Z,7.17
2019-02-18T07:25:31.152Z,7.25
2019-02-18T07:28:01.460Z,7.49
2019-02-18T07:30:31.767Z,7.65
2019-02-18T07:33:02.033Z,7.82
2019-02-18T07:35:32.336Z,7.85
2019-02-18T07:38:02.623Z,7.86
2019-02-18T07:40:32.984Z,7.49
2019-02-18T07:43:03.224Z,7.86
2019-02-18T07:45:33.505Z,7.99
2019-02-18T07:48:03.821Z,8.09
2019-02-18T07:50:34.144Z,8.00
2019-02-18T07:53:05.420Z,7.95
2019-02-18T07:55:35.717Z,8.20
2019-02-18T07:58:07.063Z,8.28
2019-02-18T08:00:37.390Z,8.20
2019-02-18T08:03:07.690Z,8.14
2019-02-18T08:05:37.977Z,8.34
2019-02-18T08:08:08.294Z,8.60
2019-02-18T08:10:38.584Z,8.81
2019-02-18T08:13:08.879Z,8.85
2019-02-18T08:15:39.168Z,8.90
2019-02-18T08:18:09.463Z,8.69
2019-02-18T08:20:39.754Z,8.84
2019-02-18T08:23:10.054Z,8.74
2019-02-18T08:25:40.771Z,9.01
2019-02-18T08:28:11.056Z,9.27
2019-02-18T08:30:41.357Z,9.45
2019-02-18T08:33:11.654Z,9.59
2019-02-18T08:35:41.953Z,9.73
2019-02-18T08:38:12.258Z,9.87
2019-02-18T08:40:42.527Z,9.60
2019-02-18T08:43:12.836Z,9.48
2019-02-18T08:45:43.121Z,9.62
2019-02-18T08:48:14.417Z,9.82
2019-02-18T08:50:44.718Z,9.87
2019-02-18T08:53:15.040Z,9.94
2019-02-18T08:55:45.475Z,9.99
2019-02-18T08:58:15.804Z,10.23
2019-02-18T09:00:46.075Z,10.34
2019-02-18T09:03:16.402Z,10.53
2019-02-18T09:05:46.725Z,10.69
2019-02-18T09:08:17.018Z,10.63
2019-02-18T09:10:47.325Z,10.70
2019-02-18T09:13:17.641Z,10.61
2019-02-18T09:16:00.026Z,10.64
2019-02-18T09:18:26.024Z,10.74
2019-02-18T09:20:56.350Z,10.84
2019-02-18T09:23:37.317Z,10.72
2019-02-18T09:26:07.616Z,10.49
2019-02-18T09:28:37.915Z,10.84
2019-02-18T09:31:08.373Z,11.05
2019-02-18T09:33:38.688Z,11.21
2019-02-18T09:36:08.987Z,11.35
2019-02-18T09:38:39.290Z,11.52
2019-02-18T09:41:09.629Z,11.67
2019-02-18T09:43:40.240Z,11.66
2019-02-18T09:46:10.537Z,11.81
2019-02-18T09:48:40.836Z,11.97
2019-02-18T09:51:11.111Z,12.01
2019-02-18T09:53:41.414Z,12.08
2019-02-18T09:56:11.708Z,12.32
2019-02-18T09:58:41.987Z,12.53
2019-02-18T10:01:12.288Z,12.75
2019-02-18T10:03:42.590Z,12.87
2019-02-18T10:06:12.899Z,13.13
2019-02-18T10:08:43.228Z,13.28
2019-02-18T10:11:13.525Z,13.41
2019-02-18T10:13:43.819Z,13.31
2019-02-18T10:16:14.122Z,13.38
2019-02-18T10:18:44.416Z,13.40
2019-02-18T10:21:14.718Z,13.35
2019-02-18T10:23:44.995Z,13.30
2019-02-18T10:26:15.300Z,13.19
2019-02-18T10:28:45.589Z,13.36
2019-02-18T10:31:15.869Z,13.66
2019-02-18T10:33:46.162Z,13.96
2019-02-18T10:36:16.741Z,14.02
2019-02-18T10:38:47.015Z,14.00
2019-02-18T10:41:19.234Z,14.08
2019-02-18T10:43:49.296Z,14.08
2019-02-18T10:46:19.603Z,13.89
2019-02-18T10:48:49.887Z,13.93
2019-02-18T10:51:20.273Z,13.98
2019-02-18T10:53:50.596Z,14.06
2019-02-18T10:56:20.909Z,14.01
2019-02-18T10:58:51.632Z,13.86
2019-02-18T11:01:21.932Z,13.85
2019-02-18T11:03:52.204Z,13.86
2019-02-18T11:06:23.219Z,14.00
2019-02-18T11:08:53.515Z,13.83
2019-02-18T11:11:23.814Z,13.85
2019-02-18T11:13:54.116Z,14.02
2019-02-18T11:16:24.418Z,14.16
2019-02-18T11:18:56.245Z,14.26
2019-02-18T11:21:26.534Z,13.84
2019-02-18T11:23:56.821Z,13.68
2019-02-18T11:26:27.600Z,13.52
2019-02-18T11:28:57.953Z,13.63
2019-02-18T11:31:28.618Z,13.61
2019-02-18T11:33:58.932Z,13.51
2019-02-18T11:36:29.226Z,13.53
2019-02-18T11:38:59.500Z,13.39
2019-02-18T11:41:29.799Z,13.60
2019-02-18T11:44:00.439Z,13.61
2019-02-18T11:46:30.743Z,13.56
2019-02-18T11:49:01.071Z,13.45
2019-02-18T11:51:32.338Z,13.44
2019-02-18T11:54:02.632Z,13.54
2019-02-18T11:56:32.935Z,13.60
2019-02-18T11:59:03.360Z,13.54
2019-02-18T12:01:33.647Z,13.56
2019-02-18T12:04:03.960Z,13.58
2019-02-18T12:06:34.260Z,13.41
2019-02-18T12:09:04.933Z,13.51
2019-02-18T12:11:38.024Z,13.57
2019-02-18T12:14:07.430Z,13.65
2019-02-18T12:16:37.753Z,13.68
2019-02-18T12:19:08.054Z,13.71
2019-02-18T12:21:38.440Z,13.77
2019-02-18T12:24:08.696Z,13.57
2019-02-18T12:26:39.028Z,13.71
2019-02-18T12:29:09.625Z,13.68
2019-02-18T12:31:39.971Z,13.60
2019-02-18T12:34:10.245Z,13.76
2019-02-18T12:36:40.549Z,13.89
2019-02-18T12:39:12.880Z,13.87
2019-02-18T12:41:48.554Z,13.99
2019-02-18T12:44:15.149Z,14.01
2019-02-18T12:46:45.450Z,14.05
2019-02-18T12:49:15.749Z,13.99
2019-02-18T12:51:46.494Z,14.13
2019-02-18T12:54:16.806Z,14.27
2019-02-18T12:56:47.169Z,14.20
2019-02-18T12:59:18.936Z,14.18
2019-02-18T13:01:49.244Z,14.24
2019-02-18T13:04:19.835Z,14.35
2019-02-18T13:06:50.159Z,14.25
2019-02-18T13:09:20.477Z,14.17
2019-02-18T13:11:58.787Z,14.36
2019-02-18T13:14:22.764Z,14.19
2019-02-18T13:16:53.120Z,14.14
2019-02-18T13:19:23.482Z,14.18
2019-02-18T13:21:53.820Z,14.17
2019-02-18T13:24:24.290Z,14.13
2019-02-18T13:26:54.613Z,14.16
2019-02-18T13:29:25.085Z,14.19
2019-02-18T13:31:55.393Z,14.22
2019-02-18T13:34:25.654Z,14.28
2019-02-18T13:36:57.333Z,14.41
2019-02-18T13:39:27.635Z,14.40
2019-02-18T13:41:57.941Z,14.51
2019-02-18T13:44:28.249Z,14.46
2019-02-18T13:46:58.578Z,14.40
2019-02-18T13:49:28.868Z,14.33
2019-02-18T13:51:59.525Z,14.47
2019-02-18T13:54:29.806Z,14.43
2019-02-18T13:57:00.116Z,14.29
2019-02-18T13:59:30.408Z,14.28
2019-02-18T14:02:00.705Z,14.44
2019-02-18T14:04:31.009Z,14.41
2019-02-18T14:07:01.368Z,14.38
2019-02-18T14:09:31.699Z,14.27
2019-02-18T14:12:02.000Z,14.31
2019-02-18T14:14:32.349Z,14.28
2019-02-18T14:17:03.712Z,14.34
2019-02-18T14:19:34.191Z,14.44
2019-02-18T14:22:05.982Z,14.31
2019-02-18T14:24:36.273Z,14.47
2019-02-18T14:27:06.647Z,14.35
2019-02-18T14:29:36.934Z,14.31
2019-02-18T14:32:07.619Z,14.37
2019-02-18T14:34:37.913Z,14.30
2019-02-18T14:37:08.250Z,14.42
2019-02-18T14:39:38.543Z,14.31
2019-02-18T14:42:08.904Z,14.19
2019-02-18T14:44:39.202Z,14.15
2019-02-18T14:47:10.561Z,14.09
2019-02-18T14:49:40.863Z,13.98
2019-02-18T14:52:11.201Z,13.93
2019-02-18T14:54:41.513Z,13.88
2019-02-18T14:57:11.832Z,13.86
2019-02-18T14:59:42.319Z,13.74
2019-02-18T15:02:12.659Z,13.77
2019-02-18T15:04:43.399Z,13.71
2019-02-18T15:07:13.699Z,13.76
2019-02-18T15:09:44.519Z,13.96
2019-02-18T15:12:14.958Z,14.05
2019-02-18T15:14:45.932Z,14.15
2019-02-18T15:17:17.301Z,13.93
2019-02-18T15:19:47.660Z,13.80
2019-02-18T15:22:19.042Z,13.82
2019-02-18T15:24:49.350Z,13.64
2019-02-18T15:27:20.204Z,13.51
2019-02-18T15:29:51.127Z,13.44
2019-02-18T15:32:21.441Z,13.22
2019-02-18T15:34:51.871Z,13.14
2019-02-18T15:37:22.888Z,13.15
2019-02-18T15:39:53.715Z,13.10
2019-02-18T15:42:24.511Z,13.13
2019-02-18T15:44:54.960Z,13.15
2019-02-18T15:47:25.486Z,12.79
2019-02-18T15:49:56.508Z,12.69
2019-02-18T15:52:27.503Z,12.69
2019-02-18T15:54:58.405Z,12.31
2019-02-18T15:57:29.024Z,12.19
2019-02-18T15:59:59.438Z,11.99
2019-02-18T16:02:29.826Z,12.12
2019-02-18T16:05:00.318Z,12.15
2019-02-18T16:07:30.837Z,11.98
2019-02-18T16:10:01.262Z,11.98
2019-02-18T16:12:33.323Z,12.01
2019-02-18T16:15:04.634Z,11.52
2019-02-18T16:17:34.964Z,11.28
2019-02-18T16:20:08.925Z,11.42
2019-02-18T16:22:39.768Z,11.48
2019-02-18T16:25:13.263Z,11.07
2019-02-18T16:27:43.755Z,11.12
2019-02-18T16:30:15.253Z,11.06
2019-02-18T16:32:46.312Z,10.73
2019-02-18T16:35:16.670Z,10.48
2019-02-18T16:37:47.458Z,10.44
2019-02-18T16:40:18.583Z,10.18
2019-02-18T16:42:58.899Z,10.01
2019-02-18T16:45:22.970Z,9.77
2019-02-18T16:47:53.735Z,9.81
2019-02-18T16:50:24.197Z,9.75
2019-02-18T16:52:54.754Z,9.54
2019-02-18T16:55:25.601Z,9.29
2019-02-18T16:57:56.326Z,9.33
2019-02-18T17:00:33.730Z,9.03
2019-02-18T17:03:04.703Z,8.91
2019-02-18T17:05:35.862Z,8.97
2019-02-18T17:08:06.662Z,8.97
2019-02-18T17:10:37.104Z,8.94
2019-02-18T17:13:08.561Z,9.05
2019-02-18T17:15:39.032Z,8.99
2019-02-18T17:18:09.534Z,8.99
2019-02-18T17:20:40.920Z,9.05
2019-02-18T17:23:12.239Z,9.11
2019-02-18T17:25:42.604Z,9.18
2019-02-18T17:28:13.136Z,9.10
2019-02-18T17:30:43.589Z,9.19
2019-02-18T17:33:21.924Z,9.09
2019-02-18T17:35:53.130Z,9.03
2019-02-18T17:38:23.600Z,9.09
2019-02-18T17:40:54.278Z,9.19
2019-02-18T17:43:24.867Z,9.06
2019-02-18T17:45:55.530Z,9.12
2019-02-18T17:48:26.612Z,9.00
2019-02-18T17:50:57.723Z,8.77
2019-02-18T17:53:28.373Z,9.00
2019-02-18T17:55:58.800Z,8.79
2019-02-18T17:58:30.045Z,8.83
2019-02-18T18:01:00.979Z,9.06
2019-02-18T18:03:31.425Z,9.46
2019-02-18T18:06:04.297Z,9.28
2019-02-18T18:08:35.111Z,9.25
2019-02-18T18:11:06.050Z,9.15
2019-02-18T18:13:36.540Z,9.05
2019-02-18T18:16:07.634Z,9.04
2019-02-18T18:18:38.570Z,9.06
2019-02-18T18:21:09.082Z,9.00
2019-02-18T18:23:39.863Z,8.78
2019-02-18T18:26:10.537Z,8.81
2019-02-18T18:28:41.693Z,8.70
2019-02-18T18:31:12.510Z,8.65
2019-02-18T18:33:43.483Z,8.67
2019-02-18T18:36:14.558Z,8.54
2019-02-18T18:38:44.975Z,8.28
2019-02-18T18:41:15.381Z,7.78
2019-02-18T18:43:46.277Z,7.89
2019-02-18T18:46:16.689Z,8.02
2019-02-18T18:48:47.701Z,8.24
2019-02-18T18:51:18.337Z,8.43
2019-02-18T18:53:49.324Z,8.41
2019-02-18T18:56:21.012Z,8.38
2019-02-18T18:58:51.565Z,8.37
2019-02-18T19:01:23.415Z,8.35
2019-02-18T19:03:54.092Z,8.35
2019-02-18T19:06:24.502Z,8.43
2019-02-18T19:08:56.698Z,8.34
2019-02-18T19:11:27.565Z,8.22
2019-02-18T19:13:59.696Z,7.85
2019-02-18T19:16:30.529Z,7.64
2019-02-18T19:19:02.873Z,7.66
2019-02-18T19:21:33.448Z,7.73
2019-02-18T19:24:03.798Z,7.78
2019-02-18T19:26:34.160Z,7.76
2019-02-18T19:29:04.804Z,7.76
2019-02-18T19:31:35.176Z,7.47
2019-02-18T19:34:06.080Z,7.80
2019-02-18T19:36:36.676Z,7.92
2019-02-18T19:39:07.285Z,7.84
2019-02-18T19:41:38.113Z,7.96
2019-02-18T19:44:08.574Z,7.98
2019-02-18T19:46:39.352Z,7.94
2019-02-18T19:49:09.753Z,7.99
2019-02-18T19:51:40.761Z,7.94
2019-02-18T19:54:11.446Z,7.97
2019-02-18T19:56:41.748Z,7.97
2019-02-18T19:59:12.274Z,8.03
2019-02-18T20:01:43.738Z,7.97
2019-02-18T20:04:16.219Z,7.86
2019-02-18T20:06:46.959Z,7.89
2019-02-18T20:09:17.528Z,7.90
2019-02-18T20:11:48.109Z,7.80
2019-02-18T20:14:19.861Z,7.82
2019-02-18T20:16:50.935Z,7.67
2019-02-18T20:19:21.445Z,7.70
2019-02-18T20:21:53.283Z,7.72
2019-02-18T20:24:24.201Z,7.68
2019-02-18T20:26:55.084Z,7.71
2019-02-18T20:29:25.595Z,7.64
2019-02-18T20:31:57.663Z,7.46
2019-02-18T20:34:28.099Z,7.62
2019-02-18T20:36:58.572Z,7.69
2019-02-18T20:39:28.951Z,7.66
2019-02-18T20:41:59.510Z,7.52
2019-02-18T20:44:30.280Z,7.53
2019-02-18T20:47:00.756Z,7.58
2019-02-18T20:49:32.293Z,7.45
2019-02-18T20:52:02.835Z,7.42
2019-02-18T20:54:33.334Z,7.43
2019-02-18T20:57:03.733Z,7.35
2019-02-18T20:59:34.182Z,7.34
2019-02-18T21:02:04.755Z,7.38
2019-02-18T21:04:36.051Z,7.29
2019-02-18T21:07:07.310Z,7.31
2019-02-18T21:09:38.094Z,7.35
2019-02-18T21:12:08.399Z,7.32
2019-02-18T21:14:38.690Z,7.30
2019-02-18T21:17:09.269Z,7.35
2019-02-18T21:19:39.653Z,7.19
2019-02-18T21:22:09.978Z,7.18
2019-02-18T21:24:40.413Z,7.18
2019-02-18T21:27:10.701Z,7.23
2019-02-18T21:29:41.383Z,7.03
2019-02-18T21:32:11.642Z,6.95
2019-02-18T21:34:41.960Z,6.61
2019-02-18T21:37:12.213Z,6.49
2019-02-18T21:39:44.005Z,6.48
2019-02-18T21:42:14.368Z,6.38
2019-02-18T21:44:44.662Z,6.36
2019-02-18T21:47:16.507Z,6.49
2019-02-18T21:49:46.790Z,6.65
2019-02-18T21:52:20.193Z,6.85
2019-02-18T21:54:51.376Z,6.62
2019-02-18T21:57:21.666Z,6.73
2019-02-18T21:59:53.029Z,6.85
2019-02-18T22:02:23.479Z,6.76
2019-02-18T22:04:53.798Z,6.79
2019-02-18T22:07:24.119Z,6.80
2019-02-18T22:09:54.796Z,6.78
2019-02-18T22:12:26.546Z,6.81
2019-02-18T22:14:57.428Z,6.64
2019-02-18T22:17:27.818Z,6.80
2019-02-18T22:19:58.094Z,6.54
2019-02-18T22:22:28.395Z,6.68
2019-02-18T22:24:58.753Z,6.81
2019-02-18T22:27:29.146Z,6.85
2019-02-18T22:29:59.440Z,6.91
2019-02-18T22:32:29.796Z,6.94
2019-02-18T22:35:00.152Z,7.00
2019-02-18T22:37:30.672Z,6.98
2019-02-18T22:40:00.979Z,6.93
2019-02-18T22:42:31.296Z,6.86
2019-02-18T22:45:01.688Z,6.78
2019-02-18T22:47:31.990Z,6.65
2019-02-18T22:50:02.301Z,6.68
2019-02-18T22:52:32.981Z,6.68
2019-02-18T22:55:03.579Z,6.59
2019-02-18T22:57:33.915Z,6.62
2019-02-18T23:00:11.911Z,6.42
2019-02-18T23:02:43.857Z,6.52
2019-02-18T23:05:14.407Z,6.58
2019-02-18T23:07:44.703Z,6.30
2019-02-18T23:10:15.046Z,6.47
2019-02-18T23:12:45.343Z,6.50
2019-02-18T23:15:15.641Z,6.58
2019-02-18T23:17:46.181Z,6.58
2019-02-18T23:20:16.753Z,6.71
2019-02-18T23:22:47.044Z,6.68
2019-02-18T23:25:17.341Z,6.62
2019-02-18T23:27:47.625Z,6.58
2019-02-18T23:30:17.908Z,6.60
2019-02-18T23:32:48.193Z,6.45
2019-02-18T23:35:18.473Z,6.50
2019-02-18T23:37:48.815Z,6.50
2019-02-18T23:40:19.115Z,6.45
2019-02-18T23:42:49.414Z,6.46
2019-02-18T23:45:19.701Z,6.59
2019-02-18T23:47:50.067Z,6.56
2019-02-18T23:50:20.364Z,6.61
2019-02-18T23:52:50.646Z,6.46
2019-02-18T23:55:20.935Z,6.48
2019-02-18T23:57:51.219Z,6.51
